Main page
METAR-TAF:

METAR-TAF

Airports :

Røros Airport

Røros, Norway

latitude: 62-35N, longitude: 011-21E, elevation: 626 m

Current weather observation

The report was made 31 minutes ago, at 23:20 UTC
Wind 5 kt from the East, varying between Northeast and East/Southeast
Temperature 14°C
Humidity 94%
Pressure 1007 hPa
Visibility 10 km or more

METAR: ENRO 142320Z AUTO 08005KT 040V110 9999 BKN018/// OVC029/// 14/13 Q1007

Time: 01:51 (23:51 UTC)

Forecast

The report was made 15 hours and 51 minutes ago, at 08:00 UTC
Forecast valid from 14 at 09 UTC to 14 at 18 UTC
Wind 10 kt from the East
Visibility 10 km or more
Few clouds at a height of 4000 ft
Scattered clouds at a height of 6000 ft
Temporary
from 14 at 12 UTC to 14 at 18 UTC
Broken clouds at a height of 1000 ft
Scattered clouds at a height of 3000 ft, Cumulonimbus.
rain showers,

TAF: ENRO 140800Z 1409/1418 08010KT 9999 FEW040 SCT060 TEMPO 1412/1418 SHRA BKN010 SCT030CB

Weather observations and forecasts of more than 4000 airports (METAR and TAF reports).

The available stations are represented by yellow and red dots on the map.

Hover mouse over dot to see the name of the station.

Then click to see weather observations and forecasts.

To change the map : click on the green buttons with a black cross to zoom in, on the green button with a dash to zoom out, or on the green arrows for adjacent maps.


METAR-TAF: